Pagrindinis puslapis
METAR-TAF:

METAR-TAF

Oro uostai :

Gran Kanarija, Ispanija

platuma: 27-56N, ilguma: 015-23W, Aukštis: 23 m

Dabartinis oras

Ataskaita buvo paskelbta 30 minutes, ne 20:00 UTC
Vėjas 8 kt iš Šiaurės
Temperatūra 21°C
Drėgmė 64%
Slėgis 1020 hPa
Matomumas 10 km arba daugiau
Su prošvaistėmis ne aukštis 3500 ft

METAR: GCLP 222000Z 36008KT 9999 BKN035 21/14 Q1020 NOSIG

Laikas: 21:30 (20:30 UTC)

Prognozė

Ataskaita buvo paskelbta 6 valandos ir 30 minutes, ne 14:00 UTC
Prognozė galioja nuo 22 metu 15 UTC su 23 metu 15 UTC
Vėjas 16 kt iš Šiaurės/Šiaurės Rytų
Matomumas 10 km arba daugiau
Su prošvaistėmis ne aukštis 3500 ft

TAF: GCLP 221400Z 2215/2315 02016KT 9999 BKN035 TX25/2314Z TN19/2306Z

Orai ataskaitas ir orų prognozės (METAR, TAF).

turimą stotys yra geltonos ir raudonos taškus žemėlapyje.

Perkelti pele per norėdami pamatyti stoties vardą.

Tada spustelėkite, norėdami matyti oro stebėjimo ir prognozės.

Norėdami pakeisti žemėlapį: spustelėkite ant žalios mygtukų su juodo kryžiaus žemyn,; žalią mygtuką su brūkšneliu, jei norite nutolinti; arba žalių rodyklių gretimoms žemėlapius.


METAR-TAF: